Time;durP1;ratioP1;P1;durP2;ratioP2;P2;SDS_P1;SDS_P2;PMS_P1;PMS_P2;Temp;Humidity;BMP_temperature;BMP_pressure;BME280_temperature;BME280_humidity;BME280_pressure;Samples;Min_cycle;Max_cycle;Signal;HPM_P1;HPM_P2
2024/04/09 00:09:51;;;;;;;5;2;;;;;;;13.52;63.49;98456.666666667;;;;
2024/04/09 00:19:47;;;;;;;5;2;;;;;;;13.27;64.92;98455;;;;
2024/04/09 00:29:47;;;;;;;5.3;2.2;;;;;;;13.14;64.48;98445;;;;
2024/04/09 00:40:49;;;;;;;5.3;2.2;;;;;;;12.92;65.69;98441.666666667;;;;
2024/04/09 00:50:48;;;;;;;5.3;2.2;;;;;;;12.84;65.03;98438.333333333;;;;
2024/04/09 01:01:47;;;;;;;4.7;2.2;;;;;;;12.65;65.82;98433.333333333;;;;
2024/04/09 01:12:47;;;;;;;4.7;2.2;;;;;;;12.39;66.26;98436.666666667;;;;
2024/04/09 01:22:47;;;;;;;4.7;2.2;;;;;;;12.2;66.63;98431.666666667;;;;
2024/04/09 01:33:47;;;;;;;3.2;1.3;;;;;;;11.99;67.94;98446.666666667;;;;
2024/04/09 01:43:47;;;;;;;3.2;1.3;;;;;;;11.81;69.01;98441.666666667;;;;
2024/04/09 01:54:48;;;;;;;3.2;1.3;;;;;;;11.85;70.33;98431.666666667;;;;
2024/04/09 02:04:47;;;;;;;2.7;1.3;;;;;;;11.91;69.7;98433.333333333;;;;
2024/04/09 02:15:48;;;;;;;2.7;1.3;;;;;;;11.74;70.07;98426.666666667;;;;
2024/04/09 02:25:47;;;;;;;2.7;1.3;;;;;;;11.54;70.26;98426.666666667;;;;
2024/04/09 02:36:47;;;;;;;3.3;1.4;;;;;;;11.45;72.43;98425;;;;
2024/04/09 02:47:47;;;;;;;3.3;1.4;;;;;;;11.36;73.28;98416.666666667;;;;
2024/04/09 02:58:47;;;;;;;3.1;1.6;;;;;;;11.29;72.3;98423.333333333;;;;
2024/04/09 03:08:47;;;;;;;3.1;1.6;;;;;;;11.15;72.71;98425;;;;
2024/04/09 03:18:47;;;;;;;3.1;1.6;;;;;;;10.99;73.88;98416.666666667;;;;
2024/04/09 03:29:47;;;;;;;4.2;1.6;;;;;;;10.92;74.7;98410;;;;
2024/04/09 03:39:48;;;;;;;4.2;1.6;;;;;;;10.83;74.48;98411.666666667;;;;
2024/04/09 03:49:47;;;;;;;4.2;1.6;;;;;;;10.78;76.8;98405;;;;
2024/04/09 04:00:47;;;;;;;3.5;2;;;;;;;10.79;76.35;98408.333333333;;;;
2024/04/09 04:10:47;;;;;;;3.5;2;;;;;;;10.68;77.17;98413.333333333;;;;
2024/04/09 04:20:47;;;;;;;3.5;2;;;;;;;10.66;76.96;98411.666666667;;;;
2024/04/09 04:31:47;;;;;;;5.3;2.2;;;;;;;10.69;77.72;98406.666666667;;;;
2024/04/09 04:41:47;;;;;;;5.3;2.2;;;;;;;10.8;77.24;98408.333333333;;;;
2024/04/09 04:51:47;;;;;;;5.3;2.2;;;;;;;10.95;78.57;98410;;;;
2024/04/09 05:02:48;;;;;;;3.5;1.7;;;;;;;11.38;78.42;98403.333333333;;;;
2024/04/09 05:13:47;;;;;;;3.5;1.7;;;;;;;11.93;77.19;98408.333333333;;;;
2024/04/09 05:23:47;;;;;;;3.5;1.7;;;;;;;12.46;76.71;98408.333333333;;;;
2024/04/09 05:33:47;;;;;;;4.6;2;;;;;;;12.9;75.52;98415;;;;
2024/04/09 05:44:47;;;;;;;4.6;2;;;;;;;13.32;74.48;98423.333333333;;;;
2024/04/09 05:54:47;;;;;;;4.6;2;;;;;;;13.88;73.74;98426.666666667;;;;
2024/04/09 06:05:47;;;;;;;11.9;6.3;;;;;;;14.53;73.18;98418.333333333;;;;
2024/04/09 06:16:47;;;;;;;11.9;6.3;;;;;;;15.41;71;98418.333333333;;;;
2024/04/09 06:26:47;;;;;;;12.4;6.9;;;;;;;15.98;70.45;98406.666666667;;;;
2024/04/09 06:36:47;;;;;;;12.4;6.9;;;;;;;16.57;70.73;98403.333333333;;;;
2024/04/09 06:47:47;;;;;;;12.4;6.9;;;;;;;17.34;68.86;98398.333333333;;;;
2024/04/09 06:58:47;;;;;;;12.2;6;;;;;;;18.11;67.82;98396.666666667;;;;
2024/04/09 07:09:47;;;;;;;12.2;6;;;;;;;18.89;64.79;98385;;;;
2024/04/09 07:19:48;;;;;;;12.2;6;;;;;;;19.33;63.06;98380;;;;
2024/04/09 07:30:47;;;;;;;11.9;5.7;;;;;;;19.7;60.22;98375;;;;
2024/04/09 07:41:48;;;;;;;11.9;5.7;;;;;;;20.51;58.92;98368.333333333;;;;
2024/04/09 07:52:48;;;;;;;11.9;5.7;;;;;;;20.84;58.51;98366.666666667;;;;
2024/04/09 08:02:47;;;;;;;11.1;5.3;;;;;;;21.44;55.64;98365;;;;
2024/04/09 08:13:47;;;;;;;11.1;5.3;;;;;;;22.24;49.5;98356.666666667;;;;
2024/04/09 08:23:47;;;;;;;11.1;5.3;;;;;;;22.7;47.25;98348.333333333;;;;
2024/04/09 08:34:48;;;;;;;5.4;2.2;;;;;;;22.98;44.88;98338.333333333;;;;
2024/04/09 08:45:47;;;;;;;5.4;2.2;;;;;;;23.49;46.71;98328.333333333;;;;
2024/04/09 08:55:47;;;;;;;6.1;2.3;;;;;;;23.95;45;98316.666666667;;;;
2024/04/09 09:06:47;;;;;;;6.1;2.3;;;;;;;23.82;41.55;98318.333333333;;;;
2024/04/09 09:16:47;;;;;;;6.1;2.3;;;;;;;24.23;39.12;98315;;;;
2024/04/09 09:26:48;;;;;;;4.1;1.8;;;;;;;24;43.1;98310;;;;
2024/04/09 09:37:48;;;;;;;4.1;1.8;;;;;;;24.3;41.51;98303.333333333;;;;
2024/04/09 09:47:48;;;;;;;4.1;1.8;;;;;;;24.52;42.79;98296.666666667;;;;
2024/04/09 09:58:48;;;;;;;5;2.1;;;;;;;24.38;43.52;98290;;;;
2024/04/09 10:08:48;;;;;;;5;2.1;;;;;;;24.39;44.64;98278.333333333;;;;
2024/04/09 10:18:47;;;;;;;5;2.1;;;;;;;24.51;43.66;98260;;;;
2024/04/09 10:29:47;;;;;;;5.3;2.1;;;;;;;25.02;42.34;98241.666666667;;;;
2024/04/09 10:39:48;;;;;;;5.3;2.1;;;;;;;25.2;40.39;98236.666666667;;;;
2024/04/09 10:49:47;;;;;;;5.3;2.1;;;;;;;25.23;38.68;98221.666666667;;;;
2024/04/09 11:00:48;;;;;;;5.8;2;;;;;;;25.82;41.41;98210;;;;
2024/04/09 11:11:48;;;;;;;5.8;2;;;;;;;25.98;40.44;98191.666666667;;;;
2024/04/09 11:21:48;;;;;;;5.8;2;;;;;;;26.11;38.14;98185;;;;
2024/04/09 11:32:47;;;;;;;5;1.8;;;;;;;26.29;38.14;98161.666666667;;;;
2024/04/09 11:42:48;;;;;;;5;1.8;;;;;;;26.81;34.55;98163.333333333;;;;
2024/04/09 11:53:48;;;;;;;5;1.8;;;;;;;27.24;33.81;98160;;;;
2024/04/09 12:04:48;;;;;;;6.3;1.9;;;;;;;27.22;34.71;98146.666666667;;;;
2024/04/09 12:15:48;;;;;;;6.3;1.9;;;;;;;27.48;31.43;98138.333333333;;;;
2024/04/09 12:25:48;;;;;;;6.3;1.9;;;;;;;27.66;34.96;98121.666666667;;;;
2024/04/09 12:36:48;;;;;;;10.1;2.4;;;;;;;28.11;32.17;98103.333333333;;;;
2024/04/09 12:46:48;;;;;;;10.1;2.4;;;;;;;28.56;31.24;98098.333333333;;;;
2024/04/09 12:57:48;;;;;;;6.8;2.5;;;;;;;28.51;32.47;98090;;;;
2024/04/09 13:07:48;;;;;;;6.8;2.5;;;;;;;28.48;30.15;98083.333333333;;;;
2024/04/09 13:17:48;;;;;;;6.8;2.5;;;;;;;28;30.12;98080;;;;
2024/04/09 13:28:47;;;;;;;10.3;3.2;;;;;;;28.25;31.83;98070;;;;
2024/04/09 13:38:48;;;;;;;10.3;3.2;;;;;;;28;29.78;98070;;;;
2024/04/09 13:48:49;;;;;;;10.3;3.2;;;;;;;28.21;30.77;98068.333333333;;;;
2024/04/09 13:58:48;;;;;;;12.5;4.3;;;;;;;28.43;28.08;98060;;;;
2024/04/09 14:09:48;;;;;;;12.5;4.3;;;;;;;28.65;30.96;98060;;;;
2024/04/09 14:19:49;;;;;;;12.5;4.3;;;;;;;28.68;29.59;98061.666666667;;;;
2024/04/09 14:29:48;;;;;;;9.7;3.8;;;;;;;27.78;32.28;98058.333333333;;;;
2024/04/09 14:39:48;;;;;;;9.7;3.8;;;;;;;27.24;33.31;98058.333333333;;;;
2024/04/09 14:49:48;;;;;;;9.7;3.8;;;;;;;27.72;33.29;98060;;;;
2024/04/09 15:00:48;;;;;;;14.1;3.4;;;;;;;28.45;33.75;98056.666666667;;;;
2024/04/09 15:10:48;;;;;;;14.1;3.4;;;;;;;29.35;30.89;98048.333333333;;;;
2024/04/09 15:21:48;;;;;;;14.1;3.4;;;;;;;30.45;29.36;98038.333333333;;;;
2024/04/09 15:32:48;;;;;;;11.7;4.3;;;;;;;31.25;28.48;98040;;;;
2024/04/09 15:42:50;;;;;;;11.7;4.3;;;;;;;32.69;27.67;98036.666666667;;;;
2024/04/09 15:52:48;;;;;;;11.7;4.3;;;;;;;31.47;28.92;98035;;;;
2024/04/09 16:02:48;;;;;;;7.2;2.3;;;;;;;30.45;27.44;98033.333333333;;;;
2024/04/09 16:13:48;;;;;;;7.2;2.3;;;;;;;28.8;29.45;98046.666666667;;;;
2024/04/09 16:24:48;;;;;;;7.2;2.3;;;;;;;26.95;31.51;98058.333333333;;;;
2024/04/09 16:35:49;;;;;;;9.4;2.3;;;;;;;26.23;32.83;98073.333333333;;;;
2024/04/09 16:45:48;;;;;;;9.4;2.3;;;;;;;25.32;34.66;98070;;;;
2024/04/09 16:56:48;;;;;;;7.2;2.8;;;;;;;24.57;35.4;98076.666666667;;;;
2024/04/09 17:06:48;;;;;;;7.2;2.8;;;;;;;23.71;39.77;98080;;;;
2024/04/09 17:16:48;;;;;;;7.2;2.8;;;;;;;23.23;37.2;98083.333333333;;;;
2024/04/09 17:26:48;;;;;;;10;3.5;;;;;;;22.56;38.86;98086.666666667;;;;
2024/04/09 17:36:49;;;;;;;10;3.5;;;;;;;21.97;40.13;98100;;;;
2024/04/09 17:46:48;;;;;;;10;3.5;;;;;;;21.52;39.39;98128.333333333;;;;
2024/04/09 17:57:48;;;;;;;8.4;3.5;;;;;;;20.98;43.02;98141.666666667;;;;
2024/04/09 18:07:48;;;;;;;8.4;3.5;;;;;;;20.39;42.48;98160;;;;
2024/04/09 18:17:48;;;;;;;8.4;3.5;;;;;;;19.79;44.91;98175;;;;
2024/04/09 18:27:48;;;;;;;10.9;5;;;;;;;19.45;44.82;98180;;;;
2024/04/09 18:38:48;;;;;;;10.9;5;;;;;;;19.33;44.69;98200;;;;
2024/04/09 18:49:48;;;;;;;10.9;5;;;;;;;19.48;43.48;98211.666666667;;;;
2024/04/09 18:59:48;;;;;;;8.1;3.8;;;;;;;19.53;42.73;98226.666666667;;;;
2024/04/09 19:09:48;;;;;;;8.1;3.8;;;;;;;19.27;43.36;98230;;;;
2024/04/09 19:20:48;;;;;;;8.1;3.8;;;;;;;18.96;44.64;98235;;;;
2024/04/09 19:30:48;;;;;;;7.6;3.8;;;;;;;18.94;44.78;98241.666666667;;;;
2024/04/09 19:41:48;;;;;;;7.6;3.8;;;;;;;18.63;45.35;98250;;;;
2024/04/09 19:52:48;;;;;;;7.6;3.8;;;;;;;18.45;46.65;98251.666666667;;;;
2024/04/09 20:02:48;;;;;;;8.5;3.5;;;;;;;18.34;47.38;98260;;;;
2024/04/09 20:13:48;;;;;;;8.5;3.5;;;;;;;18.21;47.93;98273.333333333;;;;
2024/04/09 20:23:48;;;;;;;8.5;3.5;;;;;;;18.54;47.51;98281.666666667;;;;
2024/04/09 20:33:48;;;;;;;8.8;3.3;;;;;;;18.68;47.27;98290;;;;
2024/04/09 20:44:48;;;;;;;8.8;3.3;;;;;;;18.63;47.33;98298.333333333;;;;
2024/04/09 20:55:48;;;;;;;8.8;3.3;;;;;;;18.44;47.97;98301.666666667;;;;
2024/04/09 21:05:48;;;;;;;8.4;3.8;;;;;;;18.19;48.59;98305;;;;
2024/04/09 21:16:48;;;;;;;8.4;3.8;;;;;;;17.59;49.9;98318.333333333;;;;
2024/04/09 21:26:48;;;;;;;10.6;4.8;;;;;;;17.08;52.68;98336.666666667;;;;
2024/04/09 21:36:48;;;;;;;10.6;4.8;;;;;;;16.63;54.56;98353.333333333;;;;
2024/04/09 21:46:48;;;;;;;10.6;4.8;;;;;;;16.22;55.57;98358.333333333;;;;
2024/04/09 21:57:48;;;;;;;8.6;4.3;;;;;;;15.91;56.8;98365;;;;
2024/04/09 22:08:49;;;;;;;8.6;4.3;;;;;;;15.8;56.89;98371.666666667;;;;
2024/04/09 22:18:48;;;;;;;8.6;4.3;;;;;;;16.05;56.6;98373.333333333;;;;
2024/04/09 22:28:48;;;;;;;6.4;3.5;;;;;;;15.96;57.6;98370;;;;
2024/04/09 22:39:48;;;;;;;6.4;3.5;;;;;;;15.41;58.77;98383.333333333;;;;
2024/04/09 22:49:48;;;;;;;6.4;3.5;;;;;;;15.02;59.74;98393.333333333;;;;
2024/04/09 22:59:48;;;;;;;10.1;4.5;;;;;;;14.64;61.05;98393.333333333;;;;
2024/04/09 23:10:48;;;;;;;10.1;4.5;;;;;;;14.28;61.97;98391.666666667;;;;
2024/04/09 23:21:48;;;;;;;10.1;4.5;;;;;;;13.97;63.27;98390;;;;
2024/04/09 23:31:48;;;;;;;11.2;6.1;;;;;;;13.72;63.96;98393.333333333;;;;
2024/04/09 23:41:48;;;;;;;11.2;6.1;;;;;;;13.58;66.79;98396.666666667;;;;
2024/04/09 23:52:48;;;;;;;11.2;6.1;;;;;;;13.44;66.54;98396.666666667;;;;
